Time;durP1;ratioP1;P1;durP2;ratioP2;P2;SDS_P1;SDS_P2;PMS_P1;PMS_P2;Temp;Humidity;BMP_temperature;BMP_pressure;BME280_temperature;BME280_humidity;BME280_pressure;Samples;Min_cycle;Max_cycle;Signal;HPM_P1;HPM_P2
2022/04/02 00:00:10;;;;;;;;;;;;;;;;;;4377760;32;19978;-76
2022/04/02 00:02:35;;;;;;;;;;;;;;;;;;4377361;32;19969;-76
2022/04/02 00:05:00;;;;;;;;;;;;;;;;;;4377870;32;19982;-75
2022/04/02 00:07:25;;;;;;;;;;;;;;;;;;4379077;32;19950;-76
2022/04/02 00:09:50;;;;;;;;;;;;;;;;;;4377995;32;19960;-76
2022/04/02 00:12:15;;;;;;;;;;;;;;;;;;4377192;32;19949;-75
2022/04/02 00:14:41;;;;;;;;;;;;;;;;;;4376683;32;19985;-76
2022/04/02 00:17:06;;;;;;;;;;;;;;;;;;4376125;32;19972;-76
2022/04/02 00:19:31;;;;;;;;;;;;;;;;;;4377171;32;19938;-75
2022/04/02 00:21:56;;;;;;;;;;;;;;;;;;4377180;32;19958;-75
2022/04/02 00:24:21;;;;;;;;;;;;;;;;;;4379271;32;19938;-75
2022/04/02 00:26:46;;;;;;;;;;;;;;;;;;4377696;32;19982;-76
2022/04/02 00:29:11;;;;;;;;;;;;;;;;;;4378244;32;20004;-76
2022/04/02 00:31:36;;;;;;;;;;;;;;;;;;4376515;32;19968;-76
2022/04/02 00:34:01;;;;;;;;;;;;;;;;;;4378082;32;19992;-76
2022/04/02 00:36:27;;;;;;;;;;;;;;;;;;4377329;32;19942;-76
2022/04/02 00:38:52;;;;;;;;;;;;;;;;;;4377736;32;19986;-76
2022/04/02 00:41:17;;;;;;;;;;;;;;;;;;4375757;32;19953;-75
2022/04/02 00:43:42;;;;;;;;;;;;;;;;;;4375872;32;19948;-76
2022/04/02 00:46:07;;;;;;;;;;;;;;;;;;4375797;32;20264;-77
2022/04/02 00:48:33;;;;;;;;;;;;;;;;;;4375680;32;19964;-75
2022/04/02 00:50:58;;;;;;;;;;;;;;;;;;4377089;32;19946;-77
2022/04/02 00:53:23;;;;;;;;;;;;;;;;;;4377898;32;19941;-76
2022/04/02 00:55:49;;;;;;;;;;;;;;;;;;4377334;32;19965;-76
2022/04/02 00:58:14;;;;;;;;;;;;;;;;;;4375702;32;19934;-76
2022/04/02 01:00:42;;;;;;;;;;;;;;;;;;4377299;32;19984;-76
2022/04/02 01:03:07;;;;;;;;;;;;;;;;;;4378189;32;19954;-76
2022/04/02 01:05:33;;;;;;;;;;;;;;;;;;4376644;32;19944;-77
2022/04/02 01:07:58;;;;;;;;;;;;;;;;;;4377290;32;19968;-77
2022/04/02 01:10:23;;;;;;;;;;;;;;;;;;4375818;32;19938;-76
2022/04/02 01:12:48;;;;;;;;;;;;;;;;;;4376894;32;19986;-76
2022/04/02 01:15:13;;;;;;;;;;;;;;;;;;4375174;32;19953;-76
2022/04/02 01:17:40;;;;;;;;;;;;;;;;;;4375287;32;20292;-77
2022/04/02 01:20:05;;;;;;;;;;;;;;;;;;4375327;32;20260;-76
2022/04/02 01:22:30;;;;;;;;;;;;;;;;;;4376373;32;19969;-76
2022/04/02 01:24:55;;;;;;;;;;;;;;;;;;4375960;32;19938;-75
2022/04/02 01:27:20;;;;;;;;;;;;;;;;;;4375500;32;19942;-76
2022/04/02 01:29:45;;;;;;;;;;;;;;;;;;4377159;32;19976;-76
2022/04/02 01:32:10;;;;;;;;;;;;;;;;;;4375174;32;20320;-75
2022/04/02 01:34:35;;;;;;;;;;;;;;;;;;4376235;32;19938;-76
2022/04/02 01:37:01;;;;;;;;;;;;;;;;;;4376432;32;19934;-76
2022/04/02 01:39:26;;;;;;;;;;;;;;;;;;4374978;32;19972;-76
2022/04/02 01:41:51;;;;;;;;;;;;;;;;;;4374934;32;20346;-75
2022/04/02 01:44:16;;;;;;;;;;;;;;;;;;4375288;32;19957;-75
2022/04/02 01:46:41;;;;;;;;;;;;;;;;;;4374821;32;19978;-75
2022/04/02 01:49:06;;;;;;;;;;;;;;;;;;4376278;32;19934;-75
2022/04/02 01:51:32;;;;;;;;;;;;;;;;;;4364292;32;19989;-75
2022/04/02 01:53:57;;;;;;;;;;;;;;;;;;4361622;32;19961;-76
2022/04/02 01:56:22;;;;;;;;;;;;;;;;;;4359780;33;19935;-75
2022/04/02 01:58:47;;;;;;;;;;;;;;;;;;4359507;33;19947;-75
2022/04/02 02:01:12;;;;;;;;;;;;;;;;;;4359557;33;19998;-76
2022/04/02 02:03:37;;;;;;;;;;;;;;;;;;4366299;32;20226;-76
2022/04/02 02:06:03;;;;;;;;;;;;;;;;;;4369632;32;20312;-76
2022/04/02 02:08:29;;;;;;;;;;;;;;;;;;4361200;32;19934;-75
2022/04/02 02:10:54;;;;;;;;;;;;;;;;;;4359693;33;19939;-76
2022/04/02 02:13:20;;;;;;;;;;;;;;;;;;4359648;32;19972;-75
2022/04/02 02:15:45;;;;;;;;;;;;;;;;;;4361474;32;20302;-76
2022/04/02 02:18:10;;;;;;;;;;;;;;;;;;4359607;32;19941;-75
2022/04/02 02:20:35;;;;;;;;;;;;;;;;;;4366819;32;19954;-75
2022/04/02 02:23:00;;;;;;;;;;;;;;;;;;4375313;32;19938;-76
2022/04/02 02:25:26;;;;;;;;;;;;;;;;;;4377138;32;19971;-76
2022/04/02 02:27:52;;;;;;;;;;;;;;;;;;4376214;32;20457;-75
2022/04/02 02:30:17;;;;;;;;;;;;;;;;;;4375562;32;19999;-75
2022/04/02 02:32:42;;;;;;;;;;;;;;;;;;4375338;32;20308;-74
2022/04/02 02:37:53;;;;;;;;;;;;;;;;;;4376991;32;19976;-76
2022/04/02 02:40:19;;;;;;;;;;;;;;;;;;4371919;32;19945;-76
2022/04/02 02:42:45;;;;;;;;;;;;;;;;;;4359576;33;19949;-76
2022/04/02 02:45:10;;;;;;;;;;;;;;;;;;4368765;32;19938;-76
2022/04/02 02:47:35;;;;;;;;;;;;;;;;;;4378648;32;20319;-76
2022/04/02 02:50:00;;;;;;;;;;;;;;;;;;4377207;32;19934;-75
2022/04/02 02:52:25;;;;;;;;;;;;;;;;;;4377168;32;19941;-76
2022/04/02 02:54:50;;;;;;;;;;;;;;;;;;4374964;32;19956;-76
2022/04/02 02:57:16;;;;;;;;;;;;;;;;;;4376807;32;19944;-75
2022/04/02 02:59:41;;;;;;;;;;;;;;;;;;4375635;32;19981;-74
2022/04/02 03:02:06;;;;;;;;;;;;;;;;;;4375805;32;19986;-75
2022/04/02 03:04:31;;;;;;;;;;;;;;;;;;4374807;32;19981;-75
2022/04/02 03:06:56;;;;;;;;;;;;;;;;;;4374835;32;20321;-75
2022/04/02 03:09:21;;;;;;;;;;;;;;;;;;4378798;32;20007;-74
2022/04/02 03:11:46;;;;;;;;;;;;;;;;;;4379949;32;19985;-75
2022/04/02 03:14:11;;;;;;;;;;;;;;;;;;4378196;32;19973;-76
2022/04/02 03:16:36;;;;;;;;;;;;;;;;;;4378808;32;19942;-76
2022/04/02 03:19:02;;;;;;;;;;;;;;;;;;4378726;32;19997;-76
2022/04/02 03:21:28;;;;;;;;;;;;;;;;;;4378088;32;19934;-74
2022/04/02 03:23:53;;;;;;;;;;;;;;;;;;4378483;32;20252;-75
2022/04/02 03:26:18;;;;;;;;;;;;;;;;;;4376665;32;19989;-75
2022/04/02 03:28:46;;;;;;;;;;;;;;;;;;4377073;32;19942;-76
2022/04/02 03:31:11;;;;;;;;;;;;;;;;;;4376692;32;19930;-76
2022/04/02 03:33:36;;;;;;;;;;;;;;;;;;4376558;32;19948;-75
2022/04/02 03:36:01;;;;;;;;;;;;;;;;;;4380145;32;20024;-75
2022/04/02 03:38:26;;;;;;;;;;;;;;;;;;4379325;32;19942;-75
2022/04/02 03:40:51;;;;;;;;;;;;;;;;;;4377699;32;19972;-75
2022/04/02 03:43:16;;;;;;;;;;;;;;;;;;4379006;32;20333;-76
2022/04/02 03:45:41;;;;;;;;;;;;;;;;;;4378117;32;19974;-76
2022/04/02 03:48:06;;;;;;;;;;;;;;;;;;4376975;32;19938;-75
2022/04/02 03:50:32;;;;;;;;;;;;;;;;;;4377260;32;20308;-75
2022/04/02 03:52:57;;;;;;;;;;;;;;;;;;4378081;32;19971;-75
2022/04/02 03:55:22;;;;;;;;;;;;;;;;;;4378096;32;19971;-75
2022/04/02 03:57:49;;;;;;;;;;;;;;;;;;4377551;32;20281;-75
2022/04/02 04:00:15;;;;;;;;;;;;;;;;;;4378080;32;19945;-74
2022/04/02 04:02:40;;;;;;;;;;;;;;;;;;4376092;32;20350;-75
2022/04/02 04:05:06;;;;;;;;;;;;;;;;;;4379384;32;19973;-75
2022/04/02 04:07:31;;;;;;;;;;;;;;;;;;4375675;32;19937;-74
2022/04/02 04:09:56;;;;;;;;;;;;;;;;;;4377031;32;19957;-75
2022/04/02 04:12:21;;;;;;;;;;;;;;;;;;4377345;32;20402;-75
2022/04/02 04:14:46;;;;;;;;;;;;;;;;;;4379053;32;19980;-74
2022/04/02 04:17:11;;;;;;;;;;;;;;;;;;4378260;32;19933;-76
2022/04/02 04:19:36;;;;;;;;;;;;;;;;;;4377243;32;19944;-75
2022/04/02 04:22:03;;;;;;;;;;;;;;;;;;4377796;32;19962;-75
2022/04/02 04:24:30;;;;;;;;;;;;;;;;;;4377112;32;20228;-75
2022/04/02 04:26:55;;;;;;;;;;;;;;;;;;4376157;32;19989;-76
2022/04/02 04:29:20;;;;;;;;;;;;;;;;;;4377707;32;19938;-75
2022/04/02 04:31:45;;;;;;;;;;;;;;;;;;4375941;32;19934;-76
2022/04/02 04:34:10;;;;;;;;;;;;;;;;;;4376974;32;19993;-74
2022/04/02 04:36:35;;;;;;;;;;;;;;;;;;4377864;32;19999;-74
2022/04/02 04:39:00;;;;;;;;;;;;;;;;;;4376807;32;19942;-75
2022/04/02 04:41:26;;;;;;;;;;;;;;;;;;4378691;32;19954;-75
2022/04/02 04:43:51;;;;;;;;;;;;;;;;;;4378005;32;20023;-75
2022/04/02 04:46:16;;;;;;;;;;;;;;;;;;4378019;32;19946;-76
2022/04/02 04:48:42;;;;;;;;;;;;;;;;;;4376049;32;20052;-74
2022/04/02 04:51:07;;;;;;;;;;;;;;;;;;4378483;32;19937;-75
2022/04/02 04:53:32;;;;;;;;;;;;;;;;;;4377504;32;19978;-74
2022/04/02 04:55:57;;;;;;;;;;;;;;;;;;4378052;32;19942;-74
2022/04/02 04:58:22;;;;;;;;;;;;;;;;;;4376169;32;20319;-74
2022/04/02 05:00:47;;;;;;;;;;;;;;;;;;4377016;32;20116;-74
2022/04/02 05:03:12;;;;;;;;;;;;;;;;;;4377165;32;20096;-74
2022/04/02 05:05:38;;;;;;;;;;;;;;;;;;4377212;32;19979;-74
2022/04/02 05:08:03;;;;;;;;;;;;;;;;;;4375735;32;19938;-75
2022/04/02 05:10:28;;;;;;;;;;;;;;;;;;4376806;32;19945;-75
2022/04/02 05:12:53;;;;;;;;;;;;;;;;;;4375569;32;19976;-75
2022/04/02 05:15:18;;;;;;;;;;;;;;;;;;4376098;32;19952;-75
2022/04/02 05:17:43;;;;;;;;;;;;;;;;;;4377307;32;19954;-75
2022/04/02 05:20:11;;;;;;;;;;;;;;;;;;4376659;32;19961;-74
2022/04/02 05:22:36;;;;;;;;;;;;;;;;;;4377069;32;19934;-75
2022/04/02 05:25:01;;;;;;;;;;;;;;;;;;4374966;32;19976;-75
2022/04/02 05:27:28;;;;;;;;;;;;;;;;;;4376296;32;20289;-75
2022/04/02 05:29:53;;;;;;;;;;;;;;;;;;4374478;32;19989;-75
2022/04/02 05:32:18;;;;;;;;;;;;;;;;;;4374699;32;20013;-74
2022/04/02 05:34:43;;;;;;;;;;;;;;;;;;4377717;32;19938;-74
2022/04/02 05:37:08;;;;;;;;;;;;;;;;;;4374730;32;19938;-74
2022/04/02 05:39:33;;;;;;;;;;;;;;;;;;4376799;32;19953;-74
2022/04/02 05:41:59;;;;;;;;;;;;;;;;;;4376760;32;20428;-75
2022/04/02 05:44:24;;;;;;;;;;;;;;;;;;4374818;32;19934;-75
2022/04/02 05:46:49;;;;;;;;;;;;;;;;;;4377107;32;19934;-75
2022/04/02 05:49:14;;;;;;;;;;;;;;;;;;4377456;32;19943;-75
2022/04/02 05:51:39;;;;;;;;;;;;;;;;;;4377590;32;19934;-74
2022/04/02 05:54:04;;;;;;;;;;;;;;;;;;4375203;32;19946;-74
2022/04/02 05:56:29;;;;;;;;;;;;;;;;;;4374296;32;19968;-75
2022/04/02 05:58:54;;;;;;;;;;;;;;;;;;4377845;32;19986;-77
2022/04/02 06:01:19;;;;;;;;;;;;;;;;;;4377769;32;19976;-75
2022/04/02 06:03:44;;;;;;;;;;;;;;;;;;4376032;32;19934;-75
2022/04/02 06:06:10;;;;;;;;;;;;;;;;;;4377392;32;20061;-75
2022/04/02 06:08:35;;;;;;;;;;;;;;;;;;4373830;32;19946;-76
2022/04/02 06:11:01;;;;;;;;;;;;;;;;;;4374813;32;19954;-75
2022/04/02 06:13:26;;;;;;;;;;;;;;;;;;4377049;32;20335;-76
2022/04/02 06:15:51;;;;;;;;;;;;;;;;;;4376144;32;19966;-76
2022/04/02 06:18:18;;;;;;;;;;;;;;;;;;4375218;32;19938;-75
2022/04/02 06:20:43;;;;;;;;;;;;;;;;;;4375619;32;19934;-76
2022/04/02 06:23:08;;;;;;;;;;;;;;;;;;4376174;32;20312;-75
2022/04/02 06:25:33;;;;;;;;;;;;;;;;;;4375410;32;20276;-75
2022/04/02 06:27:58;;;;;;;;;;;;;;;;;;4375091;32;19946;-76
2022/04/02 06:30:23;;;;;;;;;;;;;;;;;;4376681;32;19938;-77
2022/04/02 06:32:48;;;;;;;;;;;;;;;;;;4375824;32;19934;-75
2022/04/02 06:35:13;;;;;;;;;;;;;;;;;;4375299;32;20338;-75
2022/04/02 06:37:38;;;;;;;;;;;;;;;;;;4374558;32;20024;-76
2022/04/02 06:40:04;;;;;;;;;;;;;;;;;;4374420;32;19958;-75
2022/04/02 06:42:29;;;;;;;;;;;;;;;;;;4374843;32;19954;-76
2022/04/02 06:44:54;;;;;;;;;;;;;;;;;;4373261;32;20037;-76
2022/04/02 06:47:19;;;;;;;;;;;;;;;;;;4373860;32;19965;-75
2022/04/02 06:49:44;;;;;;;;;;;;;;;;;;4375364;32;20335;-76
2022/04/02 06:52:09;;;;;;;;;;;;;;;;;;4373621;32;19938;-76
2022/04/02 06:54:34;;;;;;;;;;;;;;;;;;4374361;32;19946;-75
2022/04/02 06:56:59;;;;;;;;;;;;;;;;;;4373376;32;19938;-75
2022/04/02 06:59:25;;;;;;;;;;;;;;;;;;4374169;32;19946;-76
2022/04/02 07:01:50;;;;;;;;;;;;;;;;;;4374552;32;20016;-76
2022/04/02 07:04:15;;;;;;;;;;;;;;;;;;4369428;32;20049;-75
2022/04/02 07:06:44;;;;;;;;;;;;;;;;;;4374845;32;19943;-76
2022/04/02 07:09:09;;;;;;;;;;;;;;;;;;4374041;32;20253;-75
2022/04/02 07:11:34;;;;;;;;;;;;;;;;;;4371108;32;20253;-75
2022/04/02 07:13:59;;;;;;;;;;;;;;;;;;4368736;32;20313;-75
2022/04/02 07:16:24;;;;;;;;;;;;;;;;;;4368329;32;19976;-75
2022/04/02 07:18:50;;;;;;;;;;;;;;;;;;4369558;32;20346;-76
2022/04/02 07:21:15;;;;;;;;;;;;;;;;;;4374863;32;19953;-75
2022/04/02 07:23:40;;;;;;;;;;;;;;;;;;4377539;32;19933;-74
2022/04/02 07:26:05;;;;;;;;;;;;;;;;;;4378551;32;19965;-75
2022/04/02 07:28:30;;;;;;;;;;;;;;;;;;4371148;32;19934;-75
2022/04/02 07:30:56;;;;;;;;;;;;;;;;;;4360328;32;19962;-75
2022/04/02 07:33:21;;;;;;;;;;;;;;;;;;4359868;32;19943;-76
2022/04/02 07:35:47;;;;;;;;;;;;;;;;;;4370749;32;20365;-75
2022/04/02 07:38:12;;;;;;;;;;;;;;;;;;4375338;32;19977;-76
2022/04/02 07:40:37;;;;;;;;;;;;;;;;;;4373590;32;20303;-75
2022/04/02 07:43:02;;;;;;;;;;;;;;;;;;4374170;32;20023;-75
2022/04/02 07:45:27;;;;;;;;;;;;;;;;;;4375150;32;19949;-75
2022/04/02 07:47:52;;;;;;;;;;;;;;;;;;4373243;32;19953;-76
2022/04/02 07:50:18;;;;;;;;;;;;;;;;;;4376222;32;19942;-74
2022/04/02 07:52:43;;;;;;;;;;;;;;;;;;4374542;32;19942;-74
2022/04/02 07:55:08;;;;;;;;;;;;;;;;;;4376601;32;19968;-74
2022/04/02 07:57:34;;;;;;;;;;;;;;;;;;4376830;32;20349;-74
2022/04/02 08:00:03;;;;;;;;;;;;;;;;;;4377062;32;20297;-75
2022/04/02 08:02:37;;;;;;;;;;;;;;;;;;4376771;32;19953;-74
2022/04/02 08:05:03;;;;;;;;;;;;;;;;;;4378891;32;20320;-75
2022/04/02 08:07:28;;;;;;;;;;;;;;;;;;4372488;32;19945;-75
2022/04/02 08:09:53;;;;;;;;;;;;;;;;;;4376898;32;19930;-75
2022/04/02 08:12:18;;;;;;;;;;;;;;;;;;4376349;32;19934;-75
2022/04/02 08:14:43;;;;;;;;;;;;;;;;;;4377814;32;19946;-75
2022/04/02 08:17:08;;;;;;;;;;;;;;;;;;4375587;32;19934;-75
2022/04/02 08:19:34;;;;;;;;;;;;;;;;;;4377311;32;20266;-75
2022/04/02 08:21:59;;;;;;;;;;;;;;;;;;4369202;32;20339;-76
2022/04/02 08:24:24;;;;;;;;;;;;;;;;;;4365399;32;19949;-75
2022/04/02 08:26:49;;;;;;;;;;;;;;;;;;4377231;32;19934;-75
2022/04/02 08:29:14;;;;;;;;;;;;;;;;;;4376809;32;19985;-75
2022/04/02 08:31:40;;;;;;;;;;;;;;;;;;4376919;32;20054;-76
2022/04/02 08:34:05;;;;;;;;;;;;;;;;;;4377254;32;20105;-76
2022/04/02 08:36:31;;;;;;;;;;;;;;;;;;4362722;32;19953;-75
2022/04/02 08:38:56;;;;;;;;;;;;;;;;;;4371031;32;19968;-76
2022/04/02 08:41:21;;;;;;;;;;;;;;;;;;4376740;32;20361;-75
2022/04/02 08:43:46;;;;;;;;;;;;;;;;;;4376361;32;19935;-75
2022/04/02 08:46:11;;;;;;;;;;;;;;;;;;4373002;32;20423;-74
2022/04/02 08:48:36;;;;;;;;;;;;;;;;;;4378485;32;19945;-74
2022/04/02 08:51:01;;;;;;;;;;;;;;;;;;4377561;32;19969;-74
2022/04/02 08:53:26;;;;;;;;;;;;;;;;;;4375486;32;19949;-75
2022/04/02 08:55:52;;;;;;;;;;;;;;;;;;4372804;32;20393;-75
2022/04/02 08:58:18;;;;;;;;;;;;;;;;;;4374346;32;19965;-75
2022/04/02 09:00:43;;;;;;;;;;;;;;;;;;4375942;32;19942;-74
2022/04/02 09:03:09;;;;;;;;;;;;;;;;;;4370274;32;20339;-74
2022/04/02 09:05:34;;;;;;;;;;;;;;;;;;4375181;32;19934;-75
2022/04/02 09:07:59;;;;;;;;;;;;;;;;;;4370351;32;19973;-75
2022/04/02 09:10:24;;;;;;;;;;;;;;;;;;4363337;32;19950;-76
2022/04/02 09:12:49;;;;;;;;;;;;;;;;;;4362100;32;19953;-75
2022/04/02 09:15:16;;;;;;;;;;;;;;;;;;4362361;32;19972;-75
2022/04/02 09:17:41;;;;;;;;;;;;;;;;;;4362520;32;19949;-75
2022/04/02 09:20:07;;;;;;;;;;;;;;;;;;4364200;32;19997;-74
2022/04/02 09:22:33;;;;;;;;;;;;;;;;;;4370953;32;19960;-75
2022/04/02 09:24:58;;;;;;;;;;;;;;;;;;4375436;32;20301;-75
2022/04/02 09:27:23;;;;;;;;;;;;;;;;;;4376161;32;19957;-76
2022/04/02 09:29:48;;;;;;;;;;;;;;;;;;4377849;32;19942;-75
2022/04/02 09:32:14;;;;;;;;;;;;;;;;;;4376103;32;19938;-75
2022/04/02 09:34:39;;;;;;;;;;;;;;;;;;4374597;32;19952;-74
2022/04/02 09:37:04;;;;;;;;;;;;;;;;;;4373105;32;19934;-75
2022/04/02 09:39:29;;;;;;;;;;;;;;;;;;4361902;32;19946;-75
2022/04/02 09:41:54;;;;;;;;;;;;;;;;;;4360245;32;19942;-76
2022/04/02 09:44:19;;;;;;;;;;;;;;;;;;4362813;32;20233;-75
2022/04/02 09:46:45;;;;;;;;;;;;;;;;;;4367319;32;20313;-74
2022/04/02 09:49:10;;;;;;;;;;;;;;;;;;4375751;32;19942;-76
2022/04/02 09:51:35;;;;;;;;;;;;;;;;;;4375971;32;19948;-74
2022/04/02 09:54:01;;;;;;;;;;;;;;;;;;4377226;32;19950;-76
2022/04/02 09:56:26;;;;;;;;;;;;;;;;;;4376240;32;20001;-75
2022/04/02 09:58:51;;;;;;;;;;;;;;;;;;4369447;32;20355;-76
2022/04/02 10:01:17;;;;;;;;;;;;;;;;;;4360762;32;19947;-74
2022/04/02 10:03:42;;;;;;;;;;;;;;;;;;4359312;32;19976;-76
2022/04/02 10:06:07;;;;;;;;;;;;;;;;;;4360333;33;19972;-75
2022/04/02 10:08:32;;;;;;;;;;;;;;;;;;4359398;32;20000;-75
2022/04/02 10:10:57;;;;;;;;;;;;;;;;;;4362180;32;19949;-75
2022/04/02 10:13:22;;;;;;;;;;;;;;;;;;4364233;32;19969;-74
2022/04/02 10:15:48;;;;;;;;;;;;;;;;;;4376215;32;19952;-75
2022/04/02 10:18:13;;;;;;;;;;;;;;;;;;4376434;32;19946;-75
2022/04/02 10:20:38;;;;;;;;;;;;;;;;;;4374396;32;19949;-76
2022/04/02 10:23:05;;;;;;;;;;;;;;;;;;4375171;32;19933;-74
2022/04/02 10:25:31;;;;;;;;;;;;;;;;;;4373989;32;20347;-75
2022/04/02 10:27:56;;;;;;;;;;;;;;;;;;4377003;32;19938;-74
2022/04/02 10:30:21;;;;;;;;;;;;;;;;;;4375424;32;19997;-75
2022/04/02 10:32:46;;;;;;;;;;;;;;;;;;4375204;32;19949;-74
2022/04/02 10:35:11;;;;;;;;;;;;;;;;;;4374893;32;20033;-75
2022/04/02 10:37:37;;;;;;;;;;;;;;;;;;4369355;32;19953;-76
2022/04/02 10:40:02;;;;;;;;;;;;;;;;;;4374175;32;19988;-75
2022/04/02 10:42:27;;;;;;;;;;;;;;;;;;4375082;32;20332;-76
2022/04/02 10:44:52;;;;;;;;;;;;;;;;;;4376041;32;19986;-75
2022/04/02 10:47:17;;;;;;;;;;;;;;;;;;4375003;32;20304;-76
2022/04/02 10:49:42;;;;;;;;;;;;;;;;;;4375619;32;19988;-75
2022/04/02 10:52:07;;;;;;;;;;;;;;;;;;4368378;32;19952;-75
2022/04/02 10:54:32;;;;;;;;;;;;;;;;;;4367695;32;19977;-76
2022/04/02 10:56:57;;;;;;;;;;;;;;;;;;4365450;32;19947;-75
2022/04/02 10:59:26;;;;;;;;;;;;;;;;;;4367493;32;19977;-75
2022/04/02 11:01:53;;;;;;;;;;;;;;;;;;4365947;32;19939;-74
2022/04/02 11:04:18;;;;;;;;;;;;;;;;;;4364575;32;19934;-74
2022/04/02 11:06:43;;;;;;;;;;;;;;;;;;4365928;32;19958;-74
2022/04/02 11:09:08;;;;;;;;;;;;;;;;;;4364935;32;20280;-78
2022/04/02 11:11:33;;;;;;;;;;;;;;;;;;4367687;32;19942;-75
2022/04/02 11:13:58;;;;;;;;;;;;;;;;;;4364668;32;19953;-76
2022/04/02 11:16:24;;;;;;;;;;;;;;;;;;4366358;32;19973;-75
2022/04/02 11:20:38;;;;;;;5.10;2.07;;;;;;;;;;4462667;32;20071;-72
2022/04/02 11:23:06;;;;;;;6.15;2.10;;;;;;;;;;4445460;32;20128;-71
2022/04/02 11:25:31;;;;;;;7.82;2.10;;;;;;;;;;4447235;32;20025;-71
2022/04/02 11:27:58;;;;;;;;;;;;;;;;;;4448374;32;20025;-69
2022/04/02 11:30:27;;;;;;;5.23;1.93;;;;;;;;;;4448064;32;19944;-72
2022/04/02 11:33:01;;;;;;;4.70;1.95;;;;;;;;;;4446253;32;20099;-74
2022/04/02 11:35:29;;;;;;;3.90;1.83;;;;;;;;;;4433366;32;20383;-74
2022/04/02 11:38:17;;;;;;;4.30;2.30;;;;;;;;;;4434346;32;20025;-75
2022/04/02 11:40:45;;;;;;;5.50;2.10;;;;;;;;;;4433380;32;20094;-75
2022/04/02 11:43:12;;;;;;;4.68;2.00;;;;;;;;;;4433175;32;20091;-75
2022/04/02 11:45:39;;;;;;;5.72;2.03;;;;;;;;;;4433527;32;20094;-75
2022/04/02 11:48:12;;;;;;;7.18;2.10;;;;;;;;;;4419359;32;20068;-75
2022/04/02 11:50:38;;;;;;;4.78;2.00;;;;;;;;;;4418765;32;20034;-74
2022/04/02 11:53:03;;;;;;;3.53;1.90;;;;;;;;;;4418787;32;20041;-74
2022/04/02 11:55:29;;;;;;;;;;;;;;;;;;4418906;32;20023;-74
2022/04/02 11:57:59;;;;;;;4.45;1.75;;;;;;;;;;4432421;32;19933;-75
2022/04/02 12:00:26;;;;;;;5.12;2.12;;;;;;;;;;4434039;32;20158;-75
2022/04/02 12:02:51;;;;;;;5.78;1.85;;;;;;;;;;4431922;32;20053;-74
2022/04/02 12:05:16;;;;;;;;;;;;;;;;;;4419082;32;20030;-74
2022/04/02 12:07:41;;;;;;;5.57;2.12;;;;;;;;;;4418561;32;19953;-75
2022/04/02 12:10:06;;;;;;;;;;;;;;;;;;4420547;32;20117;-74
2022/04/02 12:12:32;;;;;;;3.90;1.73;;;;;;;;;;4434925;32;19933;-74
2022/04/02 12:15:00;;;;;;;;;;;;;;;;;;4423162;32;20049;-75
2022/04/02 12:17:31;;;;;;;2.12;1.50;;;;;;;;;;4420918;32;20011;-75
2022/04/02 12:19:56;;;;;;;7.10;2.15;;;;;;;;;;4419541;32;20037;-75
2022/04/02 12:22:21;;;;;;;;;;;;;;;;;;4434567;32;20410;-76
2022/04/02 12:24:50;;;;;;;3.80;1.50;;;;;;;;;;4418142;32;19952;-75
2022/04/02 12:27:17;;;;;;;3.30;2.42;;;;;;;;;;4418484;32;20275;-75
2022/04/02 12:29:44;;;;;;;4.80;1.73;;;;;;;;;;4433071;32;20022;-75
2022/04/02 12:32:10;;;;;;;10.60;2.08;;;;;;;;;;4408409;32;20064;-76
2022/04/02 12:34:35;;;;;;;;;;;;;;;;;;4422591;32;20027;-75
2022/04/02 12:37:01;;;;;;;4.78;1.80;;;;;;;;;;4421168;32;19988;-75
2022/04/02 12:39:26;;;;;;;;;;;;;;;;;;4408572;32;20134;-73
2022/04/02 12:41:51;;;;;;;6.40;1.95;;;;;;;;;;4409524;32;19960;-75
2022/04/02 12:44:16;;;;;;;;;;;;;;;;;;4408654;32;20060;-75
2022/04/02 12:46:42;;;;;;;3.42;1.50;;;;;;;;;;4408091;32;20295;-74
2022/04/02 12:49:07;;;;;;;;;;;;;;;;;;4422319;32;20030;-75
2022/04/02 12:51:32;;;;;;;8.18;1.90;;;;;;;;;;4422808;32;19933;-75
2022/04/02 12:53:59;;;;;;;5.20;2.15;;;;;;;;;;4407649;32;20053;-75
2022/04/02 12:56:25;;;;;;;3.75;1.48;;;;;;;;;;4422333;32;20065;-75
2022/04/02 12:58:52;;;;;;;4.00;1.92;;;;;;;;;;4407129;32;20133;-74
2022/04/02 13:01:27;;;;;;;6.53;1.95;;;;;;;;;;4422154;32;20025;-73
2022/04/02 13:04:02;;;;;;;2.70;1.65;;;;;;;;;;4422476;32;20064;-74
2022/04/02 13:06:28;;;;;;;2.70;1.75;;;;;;;;;;4421741;32;20046;-74
2022/04/02 13:08:53;;;;;;;7.72;4.40;;;;;;;;;;4421613;32;20059;-74
2022/04/02 13:11:19;;;;;;;;;;;;;;;;;;4421988;32;20033;-75
2022/04/02 13:13:45;;;;;;;5.62;1.70;;;;;;;;;;4421384;32;19937;-74
2022/04/02 13:16:14;;;;;;;4.90;1.65;;;;;;;;;;4407481;32;20191;-74
2022/04/02 13:21:31;;;;;;;1.87;1.60;;;;;;;;;;4421516;32;20123;-73
2022/04/02 13:23:56;;;;;;;4.20;1.52;;;;;;;;;;4408794;32;20026;-74
2022/04/02 13:26:29;;;;;;;3.50;1.90;;;;;;;;;;4421417;32;20026;-74
2022/04/02 13:29:18;;;;;;;3.17;1.30;;;;;;;;;;4396236;32;20134;-74
2022/04/02 13:32:02;;;;;;;3.30;1.80;;;;;;;;;;4385085;32;20038;-73
2022/04/02 13:34:37;;;;;;;4.45;2.00;;;;;;;;;;4421662;32;20052;-73
2022/04/02 13:37:20;;;;;;;3.78;1.55;;;;;;;;;;4422749;32;20044;-73
2022/04/02 13:39:48;;;;;;;8.30;1.85;;;;;;;;;;4421087;32;20414;-74
2022/04/02 13:42:17;;;;;;;2.83;1.70;;;;;;;;;;4420465;32;20030;-74
2022/04/02 13:44:44;;;;;;;2.67;1.55;;;;;;;;;;4422043;32;20026;-74
2022/04/02 13:47:11;;;;;;;8.50;2.65;;;;;;;;;;4409087;32;20021;-74
2022/04/02 13:49:43;;;;;;;4.07;1.83;;;;;;;;;;4406756;32;20456;-75
2022/04/02 13:52:11;;;;;;;2.30;1.67;;;;;;;;;;4420903;32;20026;-74
2022/04/02 13:54:46;;;;;;;3.10;1.50;;;;;;;;;;4407394;32;20328;-74
2022/04/02 13:57:16;;;;;;;2.90;1.48;;;;;;;;;;4406666;32;20038;-74
2022/04/02 13:59:44;;;;;;;4.60;1.80;;;;;;;;;;4421791;32;20371;-74
2022/04/02 14:02:12;;;;;;;4.75;2.10;;;;;;;;;;4420290;32;20026;-74
2022/04/02 14:04:37;;;;;;;3.05;1.83;;;;;;;;;;4406696;32;20052;-73
2022/04/02 14:07:02;;;;;;;;;;;;;;;;;;4421067;32;20026;-74
2022/04/02 14:09:29;;;;;;;4.37;1.60;;;;;;;;;;4407285;32;19974;-74
2022/04/02 14:11:55;;;;;;;5.22;1.65;;;;;;;;;;4421482;32;20095;-74
2022/04/02 14:14:22;;;;;;;6.43;1.60;;;;;;;;;;4420571;32;20081;-74
2022/04/02 14:17:06;;;;;;;8.07;1.98;;;;;;;;;;4406850;32;20037;-74
2022/04/02 14:19:46;;;;;;;3.12;1.65;;;;;;;;;;4421174;32;20509;-75
2022/04/02 14:22:13;;;;;;;2.95;1.58;;;;;;;;;;4421628;32;20130;-75
2022/04/02 14:25:00;;;;;;;6.15;1.83;;;;;;;;;;4406405;32;20075;-75
2022/04/02 14:27:34;;;;;;;3.90;2.17;;;;;;;;;;4419954;32;20022;-75
2022/04/02 14:30:06;;;;;;;9.18;2.00;;;;;;;;;;4420615;32;20085;-75
2022/04/02 14:32:47;;;;;;;7.93;1.75;;;;;;;;;;4406007;32;20066;-75
2022/04/02 14:35:14;;;;;;;2.37;1.33;;;;;;;;;;4407568;32;20056;-74
2022/04/02 14:37:42;;;;;;;9.05;2.25;;;;;;;;;;4420578;32;20106;-75
2022/04/02 14:40:12;;;;;;;5.00;1.90;;;;;;;;;;4419900;32;20017;-75
2022/04/02 14:42:56;;;;;;;2.95;1.37;;;;;;;;;;4406626;32;20053;-76
2022/04/02 14:45:24;;;;;;;4.25;1.50;;;;;;;;;;4420127;32;20137;-73
2022/04/02 14:47:49;;;;;;;3.90;1.90;;;;;;;;;;4408057;32;20038;-75
2022/04/02 14:50:14;;;;;;;;;;;;;;;;;;4405942;32;20026;-74
2022/04/02 14:52:42;;;;;;;4.80;1.92;;;;;;;;;;4414572;32;19944;-74
2022/04/02 14:55:23;;;;;;;6.35;1.77;;;;;;;;;;4435188;32;20022;-74
2022/04/02 14:58:02;;;;;;;2.55;1.50;;;;;;;;;;4422593;32;20018;-74
2022/04/02 15:00:33;;;;;;;3.37;1.50;;;;;;;;;;4422671;32;20397;-74
2022/04/02 15:03:17;;;;;;;5.50;2.10;;;;;;;;;;4435011;32;20025;-74
2022/04/02 15:05:53;;;;;;;3.28;1.83;;;;;;;;;;4435181;32;20022;-74
2022/04/02 15:08:37;;;;;;;5.95;1.73;;;;;;;;;;4435515;32;20067;-74
2022/04/02 15:11:04;;;;;;;1.60;1.50;;;;;;;;;;4437374;32;20488;-73
2022/04/02 15:13:31;;;;;;;5.40;2.25;;;;;;;;;;4436058;32;20030;-73
2022/04/02 15:16:00;;;;;;;6.10;2.00;;;;;;;;;;4436579;32;20028;-74
2022/04/02 15:18:26;;;;;;;3.15;1.85;;;;;;;;;;4420595;32;20025;-74
2022/04/02 15:21:07;;;;;;;4.05;1.70;;;;;;;;;;4420957;32;20029;-74
2022/04/02 15:23:33;;;;;;;3.15;2.05;;;;;;;;;;4435165;32;20026;-74
2022/04/02 15:25:58;;;;;;;;;;;;;;;;;;4421105;32;20048;-74
2022/04/02 15:28:24;;;;;;;3.87;1.37;;;;;;;;;;4437048;32;19936;-74
2022/04/02 15:30:50;;;;;;;2.55;1.67;;;;;;;;;;4436667;32;20408;-73
2022/04/02 15:33:22;;;;;;;3.95;1.75;;;;;;;;;;4435874;32;20030;-73
2022/04/02 15:35:52;;;;;;;6.43;2.50;;;;;;;;;;4421034;32;20425;-73
2022/04/02 15:38:26;;;;;;;3.83;1.83;;;;;;;;;;4435827;32;20376;-74
2022/04/02 15:40:54;;;;;;;4.95;2.20;;;;;;;;;;4420794;32;20056;-74
2022/04/02 15:43:21;;;;;;;4.57;1.73;;;;;;;;;;4421209;32;20090;-73
2022/04/02 15:45:46;;;;;;;8.63;2.10;;;;;;;;;;4435086;32;20363;-76
2022/04/02 15:48:14;;;;;;;;;;;;;;;;;;4435118;32;20033;-75
2022/04/02 15:50:40;;;;;;;6.05;1.35;;;;;;;;;;4420956;32;19939;-75
2022/04/02 15:53:05;;;;;;;;;;;;;;;;;;4435482;32;20022;-74
2022/04/02 15:55:30;;;;;;;5.80;1.62;;;;;;;;;;4436167;32;19955;-74
2022/04/02 15:57:55;;;;;;;;;;;;;;;;;;4435038;32;20048;-74
2022/04/02 16:00:21;;;;;;;3.55;1.73;;;;;;;;;;4436716;32;20397;-74
2022/04/02 16:02:46;;;;;;;;;;;;;;;;;;4436305;32;20052;-75
2022/04/02 16:05:14;;;;;;;4.53;1.62;;;;;;;;;;4434918;32;19933;-74
2022/04/02 16:07:40;;;;;;;3.55;1.70;;;;;;;;;;4423803;32;20145;-74
2022/04/02 16:10:05;;;;;;;;;;;;;;;;;;4437715;32;20022;-75
2022/04/02 16:12:32;;;;;;;6.35;1.65;;;;;;;;;;4437970;32;19937;-73